Hot Springs National Park, AR

10:52 PM CDT on April 27, 2015 (GMT -0500)
Hot Springs Convention Center | | Change Station
CLOSE
Current Station
Personal Weather Station
Location: Hot Springs National Park, AR
Elevation: 623 ft
Nearby Weather Stations

Elev 623 ft 34.51 °N, 93.05 °W | Updated 2 minutes ago

Partly Cloudy
Partly Cloudy
56.3 °F
Feels Like 56.3 °F
N
4.0
Wind Variable Wind from NNE
Gusts 8.0 mph

Today
High -- | Low -- °F
--% Chance of Precip.
Yesterday
High -- | Low -- °F
Precip. -- in
6:26 AM 7:53 PM
Waxing Gibbous, 70% visible
Pressure 29.93 in
Visibility 10.0 miles
Clouds Few 9000 ft
Dew Point 43 °F
Humidity 61%
Rainfall 0.21 in
Snow Depth Not available.
UV 0 out of 12
Pollen 10.20 out of 12
Air Quality Not available.
Flu Activity Sporadic
METAR KHOT 280253Z AUTO 07012KT 10SM FEW090 14/05 A2993 RMK AO2 SLP133 T01440050 51012

More Conditions Fewer Conditions

Pressure 29.93 in
Visibility 10.0 miles
Clouds Few 9000 ft
Dew Point 43 °F
Humidity 61%
Rainfall 0.21 in
Snow Depth Not available.
UV 0 out of 12
Pollen 10.20 out of 12
Air Quality Not available.
Flu Activity Sporadic
METAR KHOT 280253Z AUTO 07012KT 10SM FEW090 14/05 A2993 RMK AO2 SLP133 T01440050 51012

More Conditions Fewer Conditions

10-Day Weather Forecast

Almanac

Astronomy

Apr. 27, 2015 Rise Set
Actual Time
Civil Twilight
Nautical Twilight
Astronomical Twilight
Moon
Length of Visible Light
Length of Day
Tomorrow will be .
, % of the Moon is Illuminated

Today's Extremes

State Highs State Lows

Community

WunderPhotos

Upload Photos

1,817,557 photos uploaded!

WunderBlogs® & News

Nearby

Air Quality

  Air Quality AQ Index Pollutant
Not available.

Snow Depth

Station Depth Elevation

Earthquake Activity

City Distance Mag. Time & Date
Minimum magnitude displayed is 2.5.

Coastal Water Temperatures

Place Temperature

Stations

Nearby Weather Stations

Station Location Temp. Windchill Dew Point Humidity Wind Precip. Elev Updated Type